Santa Filomena, Brazil
Current Conditions -  °F | °C
As of 2:00 PM on Thursday 27 Nov 2014 (Local Time) from SBPJ Reporting Station
Rain Showers Rain Showers  
Wind Chill: 86°   Ceiling: Unl
Heat Index: 92°   Visibility: 6mi
Dew Point: 72°   Wind: 8mph
Humidity: 62%   Direction: 230°SW
Pressure: 29.83"   Gusts: NA
Location:  9.11°S, 45.92°W
Report Text: SBPJ 271700Z 23007KT 9999 VCSH FEW020 FEW040TCU 30/22 Q1010
Loading
Personal Weather Stations






























Interactive Weather Map New forecast layout! Learn more

10-Day Weather Forecast

Advertisements
Track Severe Weather on mobile